Time;durP1;ratioP1;P1;durP2;ratioP2;P2;SDS_P1;SDS_P2;PMS_P1;PMS_P2;Temp;Humidity;BMP_temperature;BMP_pressure;BME280_temperature;BME280_humidity;BME280_pressure;Samples;Min_cycle;Max_cycle;Signal;HPM_P1;HPM_P2
2023/08/08 00:00:54;;;;;;;0.85;0.30;;;;;;;17.07;79.20;100106.00;4939077;28;20053;-67
2023/08/08 00:03:19;;;;;;;1.05;0.43;;;;;;;17.05;80.58;100119.25;4964752;28;20188;-68
2023/08/08 00:05:45;;;;;;;3.92;0.68;;;;;;;16.99;82.54;100121.63;4961108;28;20077;-68
2023/08/08 00:08:10;;;;;;;0.65;0.40;;;;;;;16.89;82.99;100108.97;4963543;28;20035;-68
2023/08/08 00:10:36;;;;;;;0.50;0.40;;;;;;;16.89;83.92;100111.69;4955526;28;20216;-67
2023/08/08 00:13:01;;;;;;;0.20;0.20;;;;;;;16.73;84.80;100099.84;4962880;28;20070;-67
2023/08/08 00:15:26;;;;;;;1.30;0.50;;;;;;;16.76;85.23;100099.06;4963280;28;20026;-67
2023/08/08 00:17:52;;;;;;;0.30;0.30;;;;;;;16.67;85.12;100099.56;4967136;28;20062;-67
2023/08/08 00:20:17;;;;;;;0.52;0.40;;;;;;;16.79;85.41;100111.81;4965051;28;20043;-67
2023/08/08 00:22:43;;;;;;;0.28;0.28;;;;;;;16.71;85.51;100110.38;4967499;28;20045;-67
2023/08/08 00:25:08;;;;;;;0.93;0.52;;;;;;;16.64;86.23;100108.53;4977080;28;20057;-67
2023/08/08 00:27:34;;;;;;;1.30;0.52;;;;;;;16.59;86.31;100092.66;5015950;28;20025;-67
2023/08/08 00:30:00;;;;;;;0.38;0.38;;;;;;;16.60;86.21;100088.00;5022826;28;20034;-67
2023/08/08 00:32:26;;;;;;;0.75;0.20;;;;;;;16.54;86.70;100104.00;5006178;28;20034;-67
2023/08/08 00:34:51;;;;;;;0.85;0.38;;;;;;;16.65;86.86;100099.19;5025957;28;20033;-67
2023/08/08 00:37:16;;;;;;;1.15;0.60;;;;;;;16.58;86.92;100093.84;5007855;28;20140;-67
2023/08/08 00:39:45;;;;;;;0.65;0.28;;;;;;;16.58;86.91;100095.78;5020653;28;20036;-67
2023/08/08 00:42:14;;;;;;;0.80;0.40;;;;;;;16.53;87.42;100088.09;4997145;28;20029;-67
2023/08/08 00:44:40;;;;;;;0.88;0.32;;;;;;;16.56;87.43;100104.38;5026091;28;20037;-66
2023/08/08 00:47:08;;;;;;;1.65;0.52;;;;;;;16.49;88.28;100103.69;5003819;28;20401;-67
2023/08/08 00:49:34;;;;;;;0.55;0.45;;;;;;;16.39;89.34;100104.56;5010801;28;20610;-67
2023/08/08 00:51:59;;;;;;;0.50;0.40;;;;;;;16.46;88.83;100093.59;5002213;28;20068;-67
2023/08/08 00:54:26;;;;;;;0.30;0.30;;;;;;;16.47;88.60;100095.16;5006862;28;20029;-67
2023/08/08 00:56:52;;;;;;;0.57;0.55;;;;;;;16.36;89.54;100089.03;5004573;28;20044;-67
2023/08/08 00:59:19;;;;;;;1.75;0.40;;;;;;;16.32;90.01;100091.06;5002925;28;20119;-67
2023/08/08 01:01:44;;;;;;;0.55;0.40;;;;;;;16.42;89.15;100071.88;5014010;28;20397;-67
2023/08/08 01:04:12;;;;;;;1.10;0.28;;;;;;;16.34;90.22;100075.88;5022557;28;20029;-67
2023/08/08 01:07:00;;;;;;;0.55;0.40;;;;;;;16.44;89.62;100080.41;5005552;28;20125;-67
2023/08/08 01:09:33;;;;;;;0.47;0.43;;;;;;;16.49;88.90;100069.09;5021262;28;20167;-67
2023/08/08 01:12:00;;;;;;;0.88;0.30;;;;;;;16.40;89.24;100062.59;5022251;28;20037;-67
2023/08/08 01:14:29;;;;;;;0.50;0.38;;;;;;;16.24;90.09;100063.97;5023466;28;20121;-67
2023/08/08 01:16:57;;;;;;;0.73;0.45;;;;;;;16.25;89.78;100060.09;5012467;28;20057;-67
2023/08/08 01:19:30;;;;;;;0.55;0.40;;;;;;;16.26;90.00;100063.53;5031257;28;20061;-67
2023/08/08 01:22:04;;;;;;;3.10;0.50;;;;;;;16.31;90.29;100060.41;5019333;28;20029;-67
2023/08/08 01:24:32;;;;;;;0.50;0.50;;;;;;;16.31;90.36;100065.06;5003607;28;20030;-67
2023/08/08 01:27:00;;;;;;;0.47;0.28;;;;;;;16.26;90.42;100069.75;5029868;28;20460;-66
2023/08/08 01:29:27;;;;;;;1.95;0.40;;;;;;;16.22;90.37;100068.25;5011697;28;20112;-67
2023/08/08 01:31:52;;;;;;;0.73;0.43;;;;;;;16.14;91.82;100062.13;5004749;28;20032;-67
2023/08/08 01:34:18;;;;;;;10.88;0.60;;;;;;;16.32;91.15;100055.75;5030553;28;20038;-68
2023/08/08 01:36:56;;;;;;;0.30;0.20;;;;;;;16.35;90.90;100060.34;4998979;28;20037;-67
2023/08/08 01:39:32;;;;;;;2.45;0.70;;;;;;;16.40;90.48;100060.66;5011893;28;20033;-67
2023/08/08 01:42:00;;;;;;;0.50;0.45;;;;;;;16.30;90.96;100042.53;5021230;28;20018;-67
2023/08/08 01:44:26;;;;;;;4.97;0.68;;;;;;;16.35;90.44;100052.97;5009238;28;20481;-67
2023/08/08 01:46:54;;;;;;;0.50;0.22;;;;;;;16.31;90.76;100044.09;4995048;28;20472;-67
2023/08/08 01:49:20;;;;;;;0.63;0.47;;;;;;;16.31;90.75;100052.25;5009049;28;20036;-68
2023/08/08 01:51:46;;;;;;;0.98;0.47;;;;;;;16.36;90.70;100048.28;5026952;28;20029;-67
2023/08/08 01:54:12;;;;;;;0.43;0.30;;;;;;;16.34;90.90;100056.09;5025914;28;20033;-67
2023/08/08 01:56:37;;;;;;;0.95;0.70;;;;;;;16.31;91.08;100054.97;5024198;28;20029;-67
2023/08/08 01:59:03;;;;;;;0.30;0.28;;;;;;;16.36;91.32;100051.78;5007661;28;20108;-67
2023/08/08 02:01:28;;;;;;;1.75;0.63;;;;;;;16.37;90.50;100052.56;5013365;28;20529;-67
2023/08/08 02:03:53;;;;;;;0.65;0.45;;;;;;;16.26;90.57;100044.53;5025275;28;20037;-67
2023/08/08 02:06:19;;;;;;;0.30;0.30;;;;;;;16.36;90.30;100040.91;5004652;28;20649;-67
2023/08/08 02:08:45;;;;;;;0.98;0.47;;;;;;;16.38;90.79;100041.25;5008044;28;20508;-67
2023/08/08 02:11:10;;;;;;;0.57;0.40;;;;;;;16.28;90.86;100037.50;4996231;28;20120;-67
2023/08/08 02:13:36;;;;;;;2.05;0.35;;;;;;;16.28;90.74;100032.06;5003645;28;20145;-67
2023/08/08 02:16:01;;;;;;;0.47;0.40;;;;;;;16.38;89.75;100037.78;5000204;28;20079;-67
2023/08/08 02:18:27;;;;;;;0.20;0.10;;;;;;;16.27;90.59;100033.28;5028403;28;20109;-67
2023/08/08 02:20:52;;;;;;;0.20;0.13;;;;;;;16.23;90.50;100035.25;5007585;28;20136;-68
2023/08/08 02:23:18;;;;;;;0.10;0.10;;;;;;;16.26;90.35;100037.16;5009818;28;20474;-68
2023/08/08 02:25:44;;;;;;;1.15;0.43;;;;;;;16.30;90.02;100025.47;5006437;28;20041;-68
2023/08/08 02:28:09;;;;;;;1.27;0.40;;;;;;;16.12;90.54;100029.16;5005344;28;20044;-68
2023/08/08 02:30:35;;;;;;;0.20;0.20;;;;;;;16.11;90.55;100030.34;5004046;28;20158;-67
2023/08/08 02:33:00;;;;;;;0.28;0.20;;;;;;;16.30;89.51;100025.47;5030636;28;20029;-69
2023/08/08 02:35:25;;;;;;;0.43;0.17;;;;;;;16.36;88.41;100018.38;5031587;28;20048;-67
2023/08/08 02:37:51;;;;;;;1.10;0.60;;;;;;;16.20;89.08;100019.00;5032722;28;20033;-68
2023/08/08 02:40:17;;;;;;;0.65;0.30;;;;;;;16.12;89.71;100025.69;5005047;28;20037;-66
2023/08/08 02:42:42;;;;;;;0.45;0.28;;;;;;;16.11;89.72;100019.50;5009502;28;20032;-68
2023/08/08 02:45:08;;;;;;;1.88;0.70;;;;;;;16.18;89.37;100019.38;5013583;28;20037;-68
2023/08/08 02:47:34;;;;;;;1.17;0.35;;;;;;;16.26;89.23;100023.56;5001554;28;20029;-67
2023/08/08 02:49:59;;;;;;;0.55;0.47;;;;;;;16.22;89.70;100022.84;5005429;28;20028;-68
2023/08/08 02:52:25;;;;;;;0.95;0.40;;;;;;;16.21;89.73;100023.25;5009542;28;20512;-67
2023/08/08 02:54:51;;;;;;;0.22;0.20;;;;;;;16.35;89.10;100025.78;5012081;28;20044;-66
2023/08/08 02:57:16;;;;;;;1.10;0.40;;;;;;;16.30;89.33;100017.31;4993831;28;20033;-66
2023/08/08 02:59:43;;;;;;;0.90;0.35;;;;;;;16.27;89.98;100014.25;4996273;28;20036;-66
2023/08/08 03:02:08;;;;;;;0.20;0.20;;;;;;;16.35;89.29;100027.72;5015653;28;20029;-66
2023/08/08 03:04:35;;;;;;;0.40;0.30;;;;;;;16.33;89.66;100027.38;5004843;28;20082;-67
2023/08/08 03:07:04;;;;;;;0.10;0.10;;;;;;;16.35;88.81;100022.28;5001376;28;20045;-67
2023/08/08 03:09:30;;;;;;;0.47;0.40;;;;;;;16.19;89.38;100014.72;4997336;28;20033;-66
2023/08/08 03:11:56;;;;;;;0.13;0.13;;;;;;;16.13;90.00;100011.72;5005801;28;20029;-68
2023/08/08 03:14:21;;;;;;;0.47;0.30;;;;;;;16.16;89.61;100013.59;5010576;28;20045;-67
2023/08/08 03:16:47;;;;;;;1.30;0.50;;;;;;;16.11;90.11;100003.19;5003914;28;20026;-68
2023/08/08 03:19:12;;;;;;;0.20;0.20;;;;;;;16.11;90.19;100010.56;5014369;28;20058;-70
2023/08/08 03:21:38;;;;;;;0.10;0.10;;;;;;;16.15;90.67;100003.91;5013627;28;20030;-68
2023/08/08 03:24:07;;;;;;;0.43;0.43;;;;;;;16.24;90.04;100000.69;4993612;28;20022;-68
2023/08/08 03:26:33;;;;;;;1.48;0.40;;;;;;;16.27;89.71;100003.38;5008738;28;20022;-67
2023/08/08 03:28:58;;;;;;;0.30;0.30;;;;;;;16.27;89.63;100000.66;5029090;28;20033;-65
2023/08/08 03:31:31;;;;;;;0.47;0.30;;;;;;;16.30;89.70;99998.31;5009924;28;20128;-67
2023/08/08 03:33:56;;;;;;;0.73;0.30;;;;;;;16.26;89.27;99995.59;5007506;28;20117;-65
2023/08/08 03:36:22;;;;;;;1.55;0.45;;;;;;;16.14;90.21;99999.66;5005535;28;20022;-67
2023/08/08 03:38:48;;;;;;;0.43;0.35;;;;;;;16.25;89.80;99991.38;4996359;28;20029;-66
2023/08/08 03:41:14;;;;;;;0.25;0.25;;;;;;;16.23;89.74;100007.31;5004682;28;20022;-66
2023/08/08 03:43:40;;;;;;;1.60;0.35;;;;;;;16.29;89.34;99989.38;5005287;28;20057;-67
2023/08/08 03:46:06;;;;;;;0.20;0.20;;;;;;;16.17;89.61;99996.13;5006873;28;20849;-67
2023/08/08 03:48:31;;;;;;;1.40;0.20;;;;;;;16.14;90.29;99986.06;5026244;28;20037;-66
2023/08/08 03:50:57;;;;;;;0.60;0.20;;;;;;;16.15;90.51;99995.78;4999069;28;20112;-66
2023/08/08 03:53:23;;;;;;;4.95;0.50;;;;;;;16.30;89.62;99999.06;5022680;28;20393;-69
2023/08/08 03:55:48;;;;;;;2.17;0.50;;;;;;;16.24;90.18;100009.63;4998207;28;20025;-66
2023/08/08 03:58:15;;;;;;;0.20;0.20;;;;;;;16.26;90.55;100001.81;5000938;28;20129;-66
2023/08/08 04:00:46;;;;;;;3.45;0.98;;;;;;;16.34;90.10;99990.88;5009703;28;20549;-65
2023/08/08 04:03:15;;;;;;;0.28;0.28;;;;;;;16.36;90.44;99985.78;4996020;28;20034;-65
2023/08/08 04:05:48;;;;;;;0.80;0.40;;;;;;;16.38;90.70;99988.84;5024757;28;20117;-68
2023/08/08 04:08:17;;;;;;;0.75;0.45;;;;;;;16.40;90.13;100000.84;5021344;28;20032;-67
2023/08/08 04:10:47;;;;;;;0.22;0.20;;;;;;;16.35;90.87;100001.31;5000617;28;20045;-67
2023/08/08 04:13:12;;;;;;;0.60;0.30;;;;;;;16.37;90.61;100000.91;5007185;28;20514;-66
2023/08/08 04:15:37;;;;;;;2.97;0.35;;;;;;;16.37;90.58;99984.59;5022033;28;20569;-65
2023/08/08 04:18:06;;;;;;;0.35;0.30;;;;;;;16.45;90.42;99992.25;5003196;28;20398;-67
2023/08/08 04:20:32;;;;;;;0.25;0.25;;;;;;;16.41;90.50;99991.53;5024891;28;20118;-67
2023/08/08 04:22:57;;;;;;;3.25;0.47;;;;;;;16.40;89.87;99998.13;5018030;28;20045;-67
2023/08/08 04:25:23;;;;;;;0.50;0.38;;;;;;;16.40;90.14;100002.81;5022406;28;20033;-68
2023/08/08 04:27:48;;;;;;;0.28;0.20;;;;;;;16.35;90.06;99993.19;5018977;28;20037;-66
2023/08/08 04:30:13;;;;;;;1.15;0.28;;;;;;;16.37;89.95;99982.66;5023736;28;20033;-67
2023/08/08 04:32:39;;;;;;;0.70;0.52;;;;;;;16.38;90.00;99992.34;5007207;28;20033;-68
2023/08/08 04:35:04;;;;;;;0.57;0.45;;;;;;;16.38;89.46;99997.00;5012830;28;20486;-69
2023/08/08 04:37:30;;;;;;;0.47;0.47;;;;;;;16.33;89.64;99995.53;5030176;28;20048;-67
2023/08/08 04:39:55;;;;;;;0.22;0.22;;;;;;;16.41;89.59;99996.97;5028633;28;20029;-67
2023/08/08 04:42:21;;;;;;;0.28;0.20;;;;;;;16.42;89.00;100009.38;5019319;28;20026;-66
2023/08/08 04:44:46;;;;;;;0.80;0.57;;;;;;;16.40;89.44;99997.38;5021636;28;20022;-65
2023/08/08 04:47:12;;;;;;;0.68;0.40;;;;;;;16.40;89.49;100006.28;5021264;28;20048;-70
2023/08/08 04:49:37;;;;;;;0.95;0.40;;;;;;;16.38;88.75;99989.63;5028024;28;20065;-67
2023/08/08 04:52:03;;;;;;;0.20;0.20;;;;;;;16.37;89.20;99998.97;5023336;28;20080;-66
2023/08/08 04:54:31;;;;;;;1.15;0.40;;;;;;;16.36;88.99;99991.97;5020652;28;20034;-67
2023/08/08 04:56:57;;;;;;;0.75;0.30;;;;;;;16.45;88.37;99999.63;5008134;28;20029;-66
2023/08/08 04:59:23;;;;;;;0.98;0.50;;;;;;;16.40;89.12;99986.50;5002189;28;20089;-69
2023/08/08 05:01:48;;;;;;;0.10;0.10;;;;;;;16.44;88.69;99992.66;5017898;28;20079;-67
2023/08/08 05:04:14;;;;;;;0.82;0.40;;;;;;;16.52;88.82;99986.75;5028633;28;20033;-66
2023/08/08 05:06:39;;;;;;;1.90;0.30;;;;;;;16.46;88.48;99988.34;5009902;28;20478;-67
2023/08/08 05:09:04;;;;;;;0.80;0.30;;;;;;;16.52;88.23;99989.47;5020581;28;20029;-66
2023/08/08 05:11:30;;;;;;;1.30;0.40;;;;;;;16.53;88.04;99987.53;5012609;28;20550;-67
2023/08/08 05:13:55;;;;;;;0.20;0.20;;;;;;;16.49;87.65;99984.81;5006433;28;20049;-66
2023/08/08 05:16:22;;;;;;;0.57;0.45;;;;;;;16.51;87.67;99985.19;5055796;22;20036;-62
2023/08/08 05:18:48;;;;;;;0.43;0.40;;;;;;;16.56;87.22;99986.69;5028896;28;20037;-65
2023/08/08 05:21:13;;;;;;;1.10;0.68;;;;;;;16.56;87.54;99982.03;5021463;28;20066;-63
2023/08/08 05:23:38;;;;;;;0.80;0.40;;;;;;;16.69;86.80;99984.91;4980133;28;20405;-64
2023/08/08 05:26:04;;;;;;;0.30;0.30;;;;;;;16.67;87.19;99979.91;5011689;28;20029;-59
2023/08/08 05:28:29;;;;;;;0.32;0.32;;;;;;;16.82;87.01;99983.94;4995777;28;20042;-64
2023/08/08 05:30:56;;;;;;;0.30;0.22;;;;;;;16.89;86.56;99983.06;4992007;28;20105;-62
2023/08/08 05:33:22;;;;;;;0.13;0.13;;;;;;;16.95;87.15;99973.25;5012331;28;20036;-62
2023/08/08 05:35:47;;;;;;;0.68;0.30;;;;;;;17.08;86.80;99974.19;5007601;28;20037;-62
2023/08/08 05:38:13;;;;;;;1.45;0.38;;;;;;;17.19;86.36;99980.19;4999195;28;20031;-64
2023/08/08 05:40:38;;;;;;;0.40;0.28;;;;;;;17.37;85.70;99974.44;4990098;28;20101;-64
2023/08/08 05:43:04;;;;;;;0.38;0.32;;;;;;;17.68;85.71;99973.09;5000060;28;20022;-62
2023/08/08 05:45:29;;;;;;;0.20;0.20;;;;;;;17.83;85.01;99982.53;5005209;28;20045;-61
2023/08/08 05:47:56;;;;;;;0.88;0.32;;;;;;;17.86;83.78;99974.28;5005266;28;20062;-65
2023/08/08 05:50:22;;;;;;;1.98;0.43;;;;;;;18.07;82.89;99966.84;4978640;28;20041;-63
2023/08/08 05:52:47;;;;;;;0.28;0.25;;;;;;;18.30;80.27;99974.91;5002259;28;20075;-65
2023/08/08 05:55:13;;;;;;;1.00;0.25;;;;;;;18.33;79.95;99979.53;5001962;28;20060;-65
2023/08/08 05:57:38;;;;;;;0.60;0.35;;;;;;;18.50;80.25;99989.31;5010704;28;20084;-64
2023/08/08 06:00:05;;;;;;;0.55;0.30;;;;;;;18.79;79.50;99990.19;4991828;28;20026;-64
2023/08/08 06:02:38;;;;;;;0.82;0.43;;;;;;;18.95;78.75;99992.88;5008977;28;20055;-66
2023/08/08 06:05:04;;;;;;;2.00;0.25;;;;;;;19.13;77.55;99979.56;5010420;28;20455;-65
2023/08/08 06:07:30;;;;;;;0.20;0.20;;;;;;;19.16;76.94;99983.41;5015712;28;20041;-64
2023/08/08 06:09:56;;;;;;;0.38;0.20;;;;;;;19.22;75.41;99995.34;5011108;28;20080;-64
2023/08/08 06:12:21;;;;;;;0.28;0.20;;;;;;;19.13;75.45;99987.75;5016303;28;20093;-65
2023/08/08 06:14:47;;;;;;;1.15;0.50;;;;;;;19.17;75.86;99990.38;4997599;28;20076;-62
2023/08/08 06:17:33;;;;;;;4.05;1.02;;;;;;;19.05;76.07;99997.31;5007471;28;20026;-62
2023/08/08 06:20:18;;;;;;;1.85;0.30;;;;;;;19.09;75.55;99973.44;4914839;29;20058;-64
2023/08/08 06:22:44;;;;;;;0.40;0.30;;;;;;;19.03;76.15;99986.06;4873468;29;20083;-63
2023/08/08 06:25:10;;;;;;;0.17;0.13;;;;;;;18.88;76.28;99982.16;4875875;29;20128;-65
2023/08/08 06:27:36;;;;;;;0.10;0.10;;;;;;;18.63;77.86;99985.47;4875908;29;20583;-64
2023/08/08 06:30:02;;;;;;;0.30;0.20;;;;;;;18.60;78.12;99993.75;4874176;29;20122;-63
2023/08/08 06:32:28;;;;;;;0.77;0.28;;;;;;;18.59;78.17;99984.00;4872666;29;20096;-63
2023/08/08 06:34:54;;;;;;;0.65;0.30;;;;;;;18.51;78.51;99993.56;4875221;29;20500;-64
2023/08/08 06:37:20;;;;;;;0.17;0.17;;;;;;;18.47;78.23;99992.84;4875829;29;20053;-63
2023/08/08 06:39:45;;;;;;;0.93;0.30;;;;;;;18.46;79.27;99988.59;4873682;29;20045;-63
2023/08/08 06:42:11;;;;;;;5.45;0.30;;;;;;;18.75;78.92;99990.25;4871251;29;20025;-63
2023/08/08 06:44:49;;;;;;;0.32;0.30;;;;;;;18.83;78.58;99990.84;4861162;29;20121;-64
2023/08/08 06:47:15;;;;;;;1.73;0.60;;;;;;;18.96;78.34;99994.44;4861543;29;20496;-63
2023/08/08 06:49:40;;;;;;;0.47;0.38;;;;;;;19.06;78.96;99987.94;4878160;29;20492;-63
2023/08/08 06:52:06;;;;;;;1.52;0.60;;;;;;;19.43;77.58;99970.25;4865154;29;20037;-63
2023/08/08 06:54:32;;;;;;;0.45;0.38;;;;;;;19.64;75.54;99988.78;4869589;29;20068;-64
2023/08/08 06:56:58;;;;;;;1.10;0.38;;;;;;;19.63;74.31;99985.28;4886400;29;20337;-64
2023/08/08 06:59:24;;;;;;;0.30;0.30;;;;;;;19.54;73.79;99973.44;4968883;28;20046;-63
2023/08/08 07:01:50;;;;;;;1.23;0.30;;;;;;;19.37;74.50;99988.34;4992082;28;20022;-63
2023/08/08 07:04:17;;;;;;;0.30;0.30;;;;;;;19.24;75.01;99990.22;4995657;28;20030;-64
2023/08/08 07:06:44;;;;;;;0.60;0.30;;;;;;;19.29;75.48;99987.75;4996656;28;20033;-64
2023/08/08 07:09:30;;;;;;;0.88;0.38;;;;;;;19.49;75.07;99991.13;4981912;28;20029;-62
2023/08/08 07:11:56;;;;;;;0.70;0.30;;;;;;;19.73;75.30;99976.03;4910778;29;20151;-64
2023/08/08 07:14:21;;;;;;;0.65;0.38;;;;;;;20.09;73.81;99980.47;4919634;29;21036;-63
2023/08/08 07:16:48;;;;;;;0.95;0.32;;;;;;;20.20;72.30;99972.75;4923292;29;20139;-63
2023/08/08 07:19:13;;;;;;;0.32;0.30;;;;;;;20.18;71.09;99977.84;4927323;29;20044;-63
2023/08/08 07:21:39;;;;;;;0.35;0.30;;;;;;;20.05;71.19;99969.66;4913811;29;20122;-62
2023/08/08 07:24:04;;;;;;;0.22;0.20;;;;;;;19.90;72.24;99978.69;4904164;29;20082;-63
2023/08/08 07:26:30;;;;;;;0.57;0.28;;;;;;;19.84;72.51;99970.25;4927146;29;20491;-64
2023/08/08 07:28:55;;;;;;;2.08;0.30;;;;;;;19.82;72.35;99983.59;4912723;29;20164;-62
2023/08/08 07:31:21;;;;;;;0.43;0.30;;;;;;;20.13;70.54;99964.72;4926191;29;20395;-64
2023/08/08 07:33:46;;;;;;;3.05;0.57;;;;;;;20.29;71.08;99962.69;4925134;29;20039;-64
2023/08/08 07:36:12;;;;;;;1.45;0.20;;;;;;;20.58;70.44;99970.78;4924662;29;20051;-62
2023/08/08 07:38:38;;;;;;;1.30;0.20;;;;;;;20.69;70.20;99952.06;4892144;29;20101;-64
2023/08/08 07:41:03;;;;;;;1.17;0.47;;;;;;;20.84;69.54;99953.13;4922793;29;20035;-64
2023/08/08 07:43:29;;;;;;;0.17;0.08;;;;;;;21.17;69.26;99951.63;4914714;29;20048;-64
2023/08/08 07:45:54;;;;;;;0.20;0.10;;;;;;;21.39;67.00;99946.94;4910525;29;20179;-63
2023/08/08 07:48:20;;;;;;;0.50;0.32;;;;;;;21.48;66.24;99946.25;4947891;28;20042;-64
2023/08/08 07:50:45;;;;;;;0.73;0.40;;;;;;;21.54;66.08;99949.94;4997804;28;20405;-64
2023/08/08 07:53:10;;;;;;;1.00;0.40;;;;;;;21.64;64.55;99953.50;4993419;28;20037;-64
2023/08/08 07:55:36;;;;;;;0.65;0.20;;;;;;;21.66;65.20;99945.59;5011427;28;20052;-64
2023/08/08 07:58:01;;;;;;;0.13;0.13;;;;;;;21.70;65.60;99954.47;4984947;28;20039;-64
2023/08/08 08:00:27;;;;;;;0.20;0.10;;;;;;;21.84;64.66;99951.22;5012863;28;20032;-64
2023/08/08 08:02:52;;;;;;;0.82;0.43;;;;;;;21.97;63.88;99951.91;4997565;28;20021;-64
2023/08/08 08:05:18;;;;;;;0.93;0.30;;;;;;;21.91;63.89;99948.97;4993855;28;20038;-64
2023/08/08 08:07:43;;;;;;;1.55;0.50;;;;;;;21.89;64.42;99945.16;5009367;28;20065;-64
2023/08/08 08:10:13;;;;;;;0.82;0.30;;;;;;;21.86;64.33;99940.56;5007359;28;20034;-63
2023/08/08 08:12:40;;;;;;;0.50;0.30;;;;;;;21.73;63.98;99939.84;4997821;28;20026;-64
2023/08/08 08:15:06;;;;;;;0.50;0.10;;;;;;;21.49;64.90;99932.09;5000120;28;20428;-64
2023/08/08 08:17:32;;;;;;;2.03;0.25;;;;;;;21.46;64.32;99933.00;4988764;28;20030;-63
2023/08/08 08:19:57;;;;;;;0.70;0.55;;;;;;;21.23;65.14;99930.69;4997464;28;21591;-63
2023/08/08 08:22:23;;;;;;;1.25;0.30;;;;;;;21.02;66.57;99925.19;5002116;28;20153;-64
2023/08/08 08:24:48;;;;;;;2.10;0.20;;;;;;;21.04;67.57;99926.25;5009414;28;20453;-64
2023/08/08 08:27:14;;;;;;;0.20;0.20;;;;;;;20.92;68.48;99935.25;4997430;28;20040;-63
2023/08/08 08:29:39;;;;;;;0.47;0.40;;;;;;;20.71;69.72;99933.22;5001528;28;20029;-64
2023/08/08 08:32:05;;;;;;;0.10;0.10;;;;;;;20.85;69.70;99926.50;5018499;28;20045;-64
2023/08/08 08:34:30;;;;;;;2.85;0.32;;;;;;;20.81;69.23;99936.81;5014995;28;20025;-64
2023/08/08 08:36:56;;;;;;;0.90;0.35;;;;;;;20.75;68.92;99939.31;5002514;28;20048;-63
2023/08/08 08:39:22;;;;;;;0.35;0.30;;;;;;;20.66;68.23;99941.97;4996313;28;20033;-64
2023/08/08 08:41:52;;;;;;;0.65;0.32;;;;;;;20.46;68.76;99944.19;5007116;28;20034;-63
2023/08/08 08:44:20;;;;;;;3.33;0.38;;;;;;;20.43;69.12;99956.00;5010817;28;20025;-65
2023/08/08 08:46:48;;;;;;;1.38;0.35;;;;;;;20.34;69.32;99961.38;5001737;28;20033;-64
2023/08/08 08:49:16;;;;;;;0.43;0.15;;;;;;;20.33;69.41;99954.38;5004542;28;20034;-64
2023/08/08 08:51:42;;;;;;;0.38;0.20;;;;;;;20.20;70.39;99973.53;5012082;28;20137;-65
2023/08/08 08:54:07;;;;;;;0.20;0.20;;;;;;;20.26;70.28;99969.03;5007832;28;20126;-64
2023/08/08 08:56:33;;;;;;;0.20;0.20;;;;;;;20.20;70.85;99970.78;5005524;28;20038;-64
2023/08/08 08:59:00;;;;;;;0.28;0.25;;;;;;;20.19;71.65;99985.66;5016373;28;20033;-62
2023/08/08 09:01:27;;;;;;;0.38;0.17;;;;;;;20.22;71.83;99978.53;5009917;28;20061;-63
2023/08/08 09:03:53;;;;;;;0.95;0.15;;;;;;;20.32;70.22;99978.25;5007902;28;20444;-64
2023/08/08 09:06:20;;;;;;;0.10;0.10;;;;;;;20.27;68.61;99975.25;5002243;28;20110;-64
2023/08/08 09:08:47;;;;;;;0.10;0.10;;;;;;;20.38;68.64;99962.03;5011688;28;20100;-64
2023/08/08 09:11:13;;;;;;;0.30;0.28;;;;;;;20.66;68.75;99972.84;5006138;28;20044;-64
2023/08/08 09:13:39;;;;;;;0.10;0.10;;;;;;;21.04;68.69;99975.53;5003565;28;20034;-63
2023/08/08 09:16:08;;;;;;;0.35;0.20;;;;;;;21.41;68.36;99974.66;4999963;28;20088;-65
2023/08/08 09:18:38;;;;;;;2.00;0.22;;;;;;;21.83;66.36;99971.63;5000662;28;20053;-64
2023/08/08 09:21:04;;;;;;;0.20;0.20;;;;;;;22.10;62.54;99960.81;5009638;28;20415;-64
2023/08/08 09:23:50;;;;;;;0.70;0.30;;;;;;;22.01;61.46;99977.25;5006917;28;20125;-63
2023/08/08 09:26:16;;;;;;;0.30;0.25;;;;;;;22.07;61.78;99973.44;4924741;29;20106;-64
2023/08/08 09:28:42;;;;;;;1.77;0.10;;;;;;;22.03;nan;99983.00;4924108;29;20056;-64
2023/08/08 09:31:07;;;;;;;1.58;0.43;;;;;;;21.85;59.99;99986.44;4929794;29;20035;-63
2023/08/08 09:33:33;;;;;;;0.10;0.00;;;;;;;21.66;60.04;99986.72;4918559;29;20050;-64
2023/08/08 09:35:58;;;;;;;0.20;0.10;;;;;;;21.54;60.90;99985.56;4926871;29;20531;-62
2023/08/08 09:38:24;;;;;;;0.10;0.10;;;;;;;21.49;61.73;99980.66;4925808;29;20048;-65
2023/08/08 09:40:50;;;;;;;0.85;0.28;;;;;;;21.47;61.38;99983.06;4925353;29;20036;-62
2023/08/08 09:43:16;;;;;;;0.52;0.00;;;;;;;21.34;60.35;99991.34;4917560;29;20047;-62
2023/08/08 09:45:42;;;;;;;0.10;0.10;;;;;;;21.20;60.66;99982.84;4918262;29;20042;-65
2023/08/08 09:48:07;;;;;;;0.40;0.30;;;;;;;21.17;62.27;99978.25;4928683;29;20028;-65
2023/08/08 09:50:34;;;;;;;0.20;0.10;;;;;;;21.29;62.45;99980.94;4916357;29;20040;-65
2023/08/08 09:53:04;;;;;;;0.10;0.10;;;;;;;21.41;62.72;99969.19;4911076;29;20559;-65
2023/08/08 09:55:31;;;;;;;0.00;0.00;;;;;;;21.53;62.13;99986.78;4927081;29;20668;-65
2023/08/08 09:57:58;;;;;;;1.13;0.25;;;;;;;21.46;60.91;99979.59;4910548;29;20467;-65
2023/08/08 10:00:27;;;;;;;0.05;0.03;;;;;;;21.30;60.71;99974.25;4912165;29;20036;-65
2023/08/08 10:02:53;;;;;;;0.75;0.15;;;;;;;21.10;61.95;99973.78;4929361;28;20045;-66
2023/08/08 10:05:19;;;;;;;0.43;0.00;;;;;;;21.02;62.20;99963.50;4997365;28;20059;-65
2023/08/08 10:07:45;;;;;;;0.52;0.10;;;;;;;20.74;63.02;99973.38;5003431;28;20026;-65
2023/08/08 10:10:11;;;;;;;0.35;0.20;;;;;;;20.66;65.21;99985.75;4996969;28;20041;-65
2023/08/08 10:12:41;;;;;;;0.40;0.25;;;;;;;20.69;66.98;99984.91;4997012;28;20076;-66
2023/08/08 10:15:08;;;;;;;0.40;0.20;;;;;;;20.64;68.17;99990.91;4998144;28;20038;-64
2023/08/08 10:17:41;;;;;;;4.68;0.17;;;;;;;20.58;67.46;99990.69;4995510;28;20030;-65
2023/08/08 10:20:11;;;;;;;0.10;0.10;;;;;;;20.55;67.59;99996.28;4974649;28;20081;-65
2023/08/08 10:22:41;;;;;;;1.10;0.20;;;;;;;20.42;66.39;99982.59;5001436;28;20041;-65
2023/08/08 10:25:08;;;;;;;0.17;0.10;;;;;;;20.38;68.87;99989.41;4998474;28;20130;-65
2023/08/08 10:27:35;;;;;;;0.47;0.28;;;;;;;20.30;70.12;99996.28;4994815;28;20057;-65
2023/08/08 10:30:06;;;;;;;0.43;0.20;;;;;;;20.25;71.28;100008.53;4997238;28;20121;-65
2023/08/08 10:32:48;;;;;;;0.70;0.22;;;;;;;20.11;72.64;100006.16;5003546;28;20030;-64
2023/08/08 10:35:14;;;;;;;0.20;0.13;;;;;;;19.95;74.35;100003.53;4982407;28;20061;-65
2023/08/08 10:37:41;;;;;;;0.20;0.20;;;;;;;19.79;75.29;99996.16;4994625;28;20470;-64
2023/08/08 10:40:08;;;;;;;0.40;0.05;;;;;;;19.57;76.51;99991.69;4997081;28;20105;-65
2023/08/08 10:42:42;;;;;;;0.20;0.13;;;;;;;19.57;76.90;100000.66;5000217;28;20080;-64
2023/08/08 10:45:12;;;;;;;1.48;0.40;;;;;;;19.34;79.13;99989.97;5004834;28;20033;-65
2023/08/08 10:47:37;;;;;;;0.57;0.00;;;;;;;19.36;80.44;99995.00;5001605;28;20120;-65
2023/08/08 10:50:11;;;;;;;0.10;0.00;;;;;;;19.40;80.29;99980.06;4993719;28;20501;-65
2023/08/08 10:52:52;;;;;;;0.82;0.30;;;;;;;19.35;80.98;99977.84;4999418;28;20038;-64
2023/08/08 10:55:49;;;;;;;0.10;0.10;;;;;;;19.39;82.59;99972.28;5001140;28;20033;-64
2023/08/08 10:58:15;;;;;;;0.30;0.10;;;;;;;19.74;83.47;99982.25;5001350;28;20412;-63
2023/08/08 11:00:44;;;;;;;0.52;0.30;;;;;;;20.04;84.37;99989.19;4974864;28;20022;-64
2023/08/08 11:03:10;;;;;;;0.15;0.13;;;;;;;;;;5002260;28;20062;-64
2023/08/08 11:05:37;;;;;;;0.45;0.20;;;;;;;21.01;81.93;99983.88;4997919;28;20510;-64
2023/08/08 11:08:07;;;;;;;0.25;0.25;;;;;;;21.42;78.63;99981.69;5008137;28;20084;-65
2023/08/08 11:10:37;;;;;;;0.45;0.30;;;;;;;21.58;76.55;99971.75;5006611;28;20045;-64
2023/08/08 11:13:05;;;;;;;2.95;0.17;;;;;;;21.53;75.10;99971.09;5003963;28;20038;-64
2023/08/08 11:15:32;;;;;;;0.10;0.10;;;;;;;21.41;73.79;99971.91;4978571;28;20034;-64
2023/08/08 11:17:59;;;;;;;0.10;0.10;;;;;;;21.34;73.44;99971.41;4987879;28;20044;-63
2023/08/08 11:20:29;;;;;;;3.63;0.22;;;;;;;20.96;74.10;99976.19;4995831;28;20521;-62
2023/08/08 11:22:56;;;;;;;0.10;0.10;;;;;;;20.75;75.70;99972.16;5000110;28;20058;-63
2023/08/08 11:25:24;;;;;;;0.32;0.20;;;;;;;20.68;76.69;99975.91;4998195;28;20031;-65
2023/08/08 11:27:54;;;;;;;0.20;0.20;;;;;;;20.64;76.80;99979.97;5001231;28;20034;-64
2023/08/08 11:30:21;;;;;;;0.20;0.13;;;;;;;20.71;76.21;99987.97;4992659;28;20058;-65